sensor_id;sensor_type;location;lat;lon;timestamp;P1;durP1;ratioP1;P2;durP2;ratioP2
74080;SDS011;62438;52.228;6.864;2023-03-31T00:01:08;10.15;;;1.70;;
74080;SDS011;62438;52.228;6.864;2023-03-31T00:03:09;8.98;;;1.70;;
74080;SDS011;62438;52.228;6.864;2023-03-31T00:05:21;9.43;;;1.60;;
74080;SDS011;62438;52.228;6.864;2023-03-31T00:07:23;9.52;;;1.67;;
74080;SDS011;62438;52.228;6.864;2023-03-31T00:09:24;11.50;;;1.60;;
74080;SDS011;62438;52.228;6.864;2023-03-31T00:11:24;8.10;;;1.33;;
74080;SDS011;62438;52.228;6.864;2023-03-31T00:13:25;10.43;;;1.70;;
74080;SDS011;62438;52.228;6.864;2023-03-31T00:15:26;13.38;;;1.90;;
74080;SDS011;62438;52.228;6.864;2023-03-31T00:17:27;8.10;;;1.60;;
74080;SDS011;62438;52.228;6.864;2023-03-31T00:19:27;8.10;;;1.38;;
74080;SDS011;62438;52.228;6.864;2023-03-31T00:21:32;9.73;;;2.45;;
74080;SDS011;62438;52.228;6.864;2023-03-31T00:23:35;13.98;;;2.20;;
74080;SDS011;62438;52.228;6.864;2023-03-31T00:25:39;11.48;;;1.67;;
74080;SDS011;62438;52.228;6.864;2023-03-31T00:27:41;8.00;;;2.08;;
74080;SDS011;62438;52.228;6.864;2023-03-31T00:29:43;9.15;;;1.67;;
74080;SDS011;62438;52.228;6.864;2023-03-31T00:31:44;10.88;;;1.40;;
74080;SDS011;62438;52.228;6.864;2023-03-31T00:33:44;9.57;;;2.00;;
74080;SDS011;62438;52.228;6.864;2023-03-31T00:35:49;11.55;;;2.13;;
74080;SDS011;62438;52.228;6.864;2023-03-31T00:37:50;9.52;;;1.70;;
74080;SDS011;62438;52.228;6.864;2023-03-31T00:39:52;8.50;;;1.90;;
74080;SDS011;62438;52.228;6.864;2023-03-31T00:41:53;9.13;;;1.80;;
74080;SDS011;62438;52.228;6.864;2023-03-31T00:46:14;8.40;;;1.23;;
74080;SDS011;62438;52.228;6.864;2023-03-31T00:48:19;7.05;;;1.40;;
74080;SDS011;62438;52.228;6.864;2023-03-31T00:50:26;6.55;;;1.50;;
74080;SDS011;62438;52.228;6.864;2023-03-31T00:52:31;13.02;;;1.73;;
74080;SDS011;62438;52.228;6.864;2023-03-31T00:54:37;8.70;;;1.77;;
74080;SDS011;62438;52.228;6.864;2023-03-31T00:56:40;9.07;;;2.22;;
74080;SDS011;62438;52.228;6.864;2023-03-31T00:58:44;9.45;;;1.77;;
74080;SDS011;62438;52.228;6.864;2023-03-31T01:00:46;11.57;;;1.85;;
74080;SDS011;62438;52.228;6.864;2023-03-31T01:02:57;14.38;;;1.90;;
74080;SDS011;62438;52.228;6.864;2023-03-31T01:05:02;9.65;;;1.75;;
74080;SDS011;62438;52.228;6.864;2023-03-31T01:07:07;6.50;;;1.48;;
74080;SDS011;62438;52.228;6.864;2023-03-31T01:09:15;13.10;;;1.95;;
74080;SDS011;62438;52.228;6.864;2023-03-31T01:11:18;8.98;;;1.38;;
74080;SDS011;62438;52.228;6.864;2023-03-31T01:13:20;8.10;;;1.55;;
74080;SDS011;62438;52.228;6.864;2023-03-31T01:15:21;11.80;;;1.92;;
74080;SDS011;62438;52.228;6.864;2023-03-31T01:17:22;9.57;;;1.40;;
74080;SDS011;62438;52.228;6.864;2023-03-31T01:19:44;10.02;;;1.50;;
74080;SDS011;62438;52.228;6.864;2023-03-31T01:35:46;8.45;;;1.30;;
74080;SDS011;62438;52.228;6.864;2023-03-31T01:43:17;7.78;;;1.17;;
74080;SDS011;62438;52.228;6.864;2023-03-31T01:45:36;8.80;;;1.60;;
74080;SDS011;62438;52.228;6.864;2023-03-31T01:52:27;7.47;;;1.10;;
74080;SDS011;62438;52.228;6.864;2023-03-31T01:54:48;6.47;;;1.17;;
74080;SDS011;62438;52.228;6.864;2023-03-31T01:56:56;8.32;;;1.23;;
74080;SDS011;62438;52.228;6.864;2023-03-31T01:59:04;11.48;;;1.85;;
74080;SDS011;62438;52.228;6.864;2023-03-31T02:01:10;7.68;;;1.20;;
74080;SDS011;62438;52.228;6.864;2023-03-31T02:03:36;8.25;;;1.60;;
74080;SDS011;62438;52.228;6.864;2023-03-31T02:05:52;10.77;;;1.73;;
74080;SDS011;62438;52.228;6.864;2023-03-31T02:07:58;10.00;;;2.33;;
74080;SDS011;62438;52.228;6.864;2023-03-31T02:10:12;8.55;;;1.50;;
74080;SDS011;62438;52.228;6.864;2023-03-31T02:12:14;6.95;;;1.50;;
74080;SDS011;62438;52.228;6.864;2023-03-31T02:14:17;11.68;;;1.63;;
74080;SDS011;62438;52.228;6.864;2023-03-31T02:16:23;7.28;;;1.65;;
74080;SDS011;62438;52.228;6.864;2023-03-31T02:18:26;13.80;;;1.98;;
74080;SDS011;62438;52.228;6.864;2023-03-31T02:20:32;8.35;;;1.70;;
74080;SDS011;62438;52.228;6.864;2023-03-31T02:22:33;10.20;;;1.90;;
74080;SDS011;62438;52.228;6.864;2023-03-31T02:24:36;12.15;;;2.50;;
74080;SDS011;62438;52.228;6.864;2023-03-31T02:26:48;9.57;;;2.10;;
74080;SDS011;62438;52.228;6.864;2023-03-31T02:28:53;11.80;;;2.30;;
74080;SDS011;62438;52.228;6.864;2023-03-31T02:33:11;11.63;;;2.13;;
74080;SDS011;62438;52.228;6.864;2023-03-31T02:35:15;10.15;;;2.05;;
74080;SDS011;62438;52.228;6.864;2023-03-31T02:37:19;12.13;;;2.40;;
74080;SDS011;62438;52.228;6.864;2023-03-31T02:39:24;11.55;;;2.20;;
74080;SDS011;62438;52.228;6.864;2023-03-31T02:41:30;10.45;;;2.00;;
74080;SDS011;62438;52.228;6.864;2023-03-31T02:43:31;10.95;;;2.50;;
74080;SDS011;62438;52.228;6.864;2023-03-31T02:45:35;10.60;;;2.47;;
74080;SDS011;62438;52.228;6.864;2023-03-31T02:47:39;13.50;;;2.95;;
74080;SDS011;62438;52.228;6.864;2023-03-31T02:49:41;12.77;;;2.70;;
74080;SDS011;62438;52.228;6.864;2023-03-31T02:58:39;9.77;;;2.60;;
74080;SDS011;62438;52.228;6.864;2023-03-31T03:07:23;9.93;;;2.33;;
74080;SDS011;62438;52.228;6.864;2023-03-31T03:09:48;9.48;;;2.50;;
74080;SDS011;62438;52.228;6.864;2023-03-31T03:16:07;9.48;;;2.55;;
74080;SDS011;62438;52.228;6.864;2023-03-31T03:18:18;10.82;;;2.50;;
74080;SDS011;62438;52.228;6.864;2023-03-31T03:20:19;12.30;;;2.63;;
74080;SDS011;62438;52.228;6.864;2023-03-31T03:22:21;9.70;;;2.40;;
74080;SDS011;62438;52.228;6.864;2023-03-31T03:24:22;12.82;;;2.83;;
74080;SDS011;62438;52.228;6.864;2023-03-31T03:26:23;15.60;;;2.85;;
74080;SDS011;62438;52.228;6.864;2023-03-31T03:28:26;11.93;;;2.85;;
74080;SDS011;62438;52.228;6.864;2023-03-31T03:30:27;14.38;;;2.67;;
74080;SDS011;62438;52.228;6.864;2023-03-31T03:32:27;10.02;;;2.60;;
74080;SDS011;62438;52.228;6.864;2023-03-31T03:34:28;10.90;;;2.55;;
74080;SDS011;62438;52.228;6.864;2023-03-31T03:36:29;9.75;;;2.60;;
74080;SDS011;62438;52.228;6.864;2023-03-31T03:38:29;12.45;;;2.50;;
74080;SDS011;62438;52.228;6.864;2023-03-31T03:40:29;12.23;;;2.75;;
74080;SDS011;62438;52.228;6.864;2023-03-31T03:42:30;10.35;;;2.50;;
74080;SDS011;62438;52.228;6.864;2023-03-31T03:44:31;8.77;;;2.20;;
74080;SDS011;62438;52.228;6.864;2023-03-31T03:46:32;11.93;;;2.20;;
74080;SDS011;62438;52.228;6.864;2023-03-31T03:48:32;6.90;;;2.00;;
74080;SDS011;62438;52.228;6.864;2023-03-31T03:50:34;14.35;;;2.92;;
74080;SDS011;62438;52.228;6.864;2023-03-31T03:52:35;12.90;;;2.85;;
74080;SDS011;62438;52.228;6.864;2023-03-31T03:54:36;12.35;;;2.60;;
74080;SDS011;62438;52.228;6.864;2023-03-31T03:56:36;14.05;;;2.45;;
74080;SDS011;62438;52.228;6.864;2023-03-31T03:58:37;11.85;;;2.63;;
74080;SDS011;62438;52.228;6.864;2023-03-31T04:00:37;14.13;;;2.90;;
74080;SDS011;62438;52.228;6.864;2023-03-31T04:02:38;11.32;;;2.63;;
74080;SDS011;62438;52.228;6.864;2023-03-31T04:04:39;13.65;;;3.00;;
74080;SDS011;62438;52.228;6.864;2023-03-31T04:06:39;14.80;;;3.03;;
74080;SDS011;62438;52.228;6.864;2023-03-31T04:08:40;16.63;;;3.38;;
74080;SDS011;62438;52.228;6.864;2023-03-31T04:10:44;12.90;;;3.20;;
74080;SDS011;62438;52.228;6.864;2023-03-31T04:12:47;11.57;;;3.15;;
74080;SDS011;62438;52.228;6.864;2023-03-31T04:14:47;10.15;;;3.10;;
74080;SDS011;62438;52.228;6.864;2023-03-31T04:16:48;16.95;;;3.40;;
74080;SDS011;62438;52.228;6.864;2023-03-31T04:18:48;11.40;;;3.30;;
74080;SDS011;62438;52.228;6.864;2023-03-31T04:20:49;11.82;;;3.10;;
74080;SDS011;62438;52.228;6.864;2023-03-31T04:23:05;11.23;;;2.80;;
74080;SDS011;62438;52.228;6.864;2023-03-31T04:25:09;8.93;;;2.60;;
74080;SDS011;62438;52.228;6.864;2023-03-31T04:27:15;12.57;;;2.92;;
74080;SDS011;62438;52.228;6.864;2023-03-31T04:29:16;13.60;;;2.70;;
74080;SDS011;62438;52.228;6.864;2023-03-31T04:31:19;12.20;;;2.78;;
74080;SDS011;62438;52.228;6.864;2023-03-31T04:33:25;11.90;;;2.45;;
74080;SDS011;62438;52.228;6.864;2023-03-31T04:35:27;11.88;;;3.08;;
74080;SDS011;62438;52.228;6.864;2023-03-31T04:37:48;15.60;;;3.05;;
74080;SDS011;62438;52.228;6.864;2023-03-31T04:39:51;10.52;;;3.08;;
74080;SDS011;62438;52.228;6.864;2023-03-31T04:41:53;13.20;;;2.50;;
74080;SDS011;62438;52.228;6.864;2023-03-31T04:43:54;12.70;;;2.47;;
74080;SDS011;62438;52.228;6.864;2023-03-31T04:45:54;10.13;;;2.85;;
74080;SDS011;62438;52.228;6.864;2023-03-31T04:47:55;11.45;;;2.40;;
74080;SDS011;62438;52.228;6.864;2023-03-31T04:49:55;13.43;;;2.40;;
74080;SDS011;62438;52.228;6.864;2023-03-31T04:51:56;11.63;;;2.53;;
74080;SDS011;62438;52.228;6.864;2023-03-31T04:53:56;11.80;;;2.38;;
74080;SDS011;62438;52.228;6.864;2023-03-31T04:55:57;11.00;;;2.53;;
74080;SDS011;62438;52.228;6.864;2023-03-31T04:57:57;9.93;;;2.58;;
74080;SDS011;62438;52.228;6.864;2023-03-31T04:59:58;8.13;;;2.45;;
74080;SDS011;62438;52.228;6.864;2023-03-31T05:01:58;12.45;;;2.75;;
74080;SDS011;62438;52.228;6.864;2023-03-31T05:03:59;14.38;;;2.90;;
74080;SDS011;62438;52.228;6.864;2023-03-31T05:05:59;13.15;;;2.88;;
74080;SDS011;62438;52.228;6.864;2023-03-31T05:08:01;11.35;;;2.80;;
74080;SDS011;62438;52.228;6.864;2023-03-31T05:10:03;10.68;;;2.42;;
74080;SDS011;62438;52.228;6.864;2023-03-31T05:12:03;14.25;;;2.55;;
74080;SDS011;62438;52.228;6.864;2023-03-31T05:14:04;15.15;;;2.63;;
74080;SDS011;62438;52.228;6.864;2023-03-31T05:16:05;10.30;;;2.85;;
74080;SDS011;62438;52.228;6.864;2023-03-31T05:18:13;15.60;;;2.60;;
74080;SDS011;62438;52.228;6.864;2023-03-31T05:20:13;13.27;;;2.33;;
74080;SDS011;62438;52.228;6.864;2023-03-31T05:22:14;13.00;;;2.42;;
74080;SDS011;62438;52.228;6.864;2023-03-31T05:24:19;10.45;;;2.88;;
74080;SDS011;62438;52.228;6.864;2023-03-31T05:26:20;12.88;;;2.78;;
74080;SDS011;62438;52.228;6.864;2023-03-31T05:28:21;14.68;;;3.08;;
74080;SDS011;62438;52.228;6.864;2023-03-31T05:30:22;14.15;;;3.30;;
74080;SDS011;62438;52.228;6.864;2023-03-31T05:32:25;13.60;;;2.90;;
74080;SDS011;62438;52.228;6.864;2023-03-31T05:34:26;11.93;;;2.10;;
74080;SDS011;62438;52.228;6.864;2023-03-31T05:36:26;12.07;;;2.40;;
74080;SDS011;62438;52.228;6.864;2023-03-31T05:38:27;13.95;;;2.17;;
74080;SDS011;62438;52.228;6.864;2023-03-31T05:40:28;11.73;;;2.72;;
74080;SDS011;62438;52.228;6.864;2023-03-31T05:42:28;11.52;;;2.30;;
74080;SDS011;62438;52.228;6.864;2023-03-31T05:44:29;14.98;;;2.72;;
74080;SDS011;62438;52.228;6.864;2023-03-31T05:46:29;13.00;;;3.05;;
74080;SDS011;62438;52.228;6.864;2023-03-31T05:48:29;16.70;;;2.22;;
74080;SDS011;62438;52.228;6.864;2023-03-31T05:50:30;11.35;;;2.30;;
74080;SDS011;62438;52.228;6.864;2023-03-31T05:52:30;11.32;;;2.28;;
74080;SDS011;62438;52.228;6.864;2023-03-31T05:54:31;16.48;;;2.80;;
74080;SDS011;62438;52.228;6.864;2023-03-31T05:56:32;14.57;;;2.75;;
74080;SDS011;62438;52.228;6.864;2023-03-31T05:58:34;12.85;;;2.50;;
74080;SDS011;62438;52.228;6.864;2023-03-31T06:00:35;10.82;;;2.80;;
74080;SDS011;62438;52.228;6.864;2023-03-31T06:02:36;13.05;;;2.53;;
74080;SDS011;62438;52.228;6.864;2023-03-31T06:04:37;12.60;;;2.42;;
74080;SDS011;62438;52.228;6.864;2023-03-31T06:06:38;14.70;;;2.53;;
74080;SDS011;62438;52.228;6.864;2023-03-31T06:08:39;18.30;;;3.00;;
74080;SDS011;62438;52.228;6.864;2023-03-31T06:10:40;10.45;;;2.38;;
74080;SDS011;62438;52.228;6.864;2023-03-31T06:12:41;11.27;;;2.63;;
74080;SDS011;62438;52.228;6.864;2023-03-31T06:14:42;11.00;;;3.05;;
74080;SDS011;62438;52.228;6.864;2023-03-31T06:16:42;11.93;;;2.58;;
74080;SDS011;62438;52.228;6.864;2023-03-31T06:18:43;13.20;;;2.90;;
74080;SDS011;62438;52.228;6.864;2023-03-31T06:20:47;19.80;;;2.80;;
74080;SDS011;62438;52.228;6.864;2023-03-31T06:22:48;14.65;;;3.17;;
74080;SDS011;62438;52.228;6.864;2023-03-31T06:24:49;12.57;;;3.38;;
74080;SDS011;62438;52.228;6.864;2023-03-31T06:26:49;12.23;;;2.53;;
74080;SDS011;62438;52.228;6.864;2023-03-31T06:28:49;16.40;;;3.35;;
74080;SDS011;62438;52.228;6.864;2023-03-31T06:30:50;18.95;;;3.30;;
74080;SDS011;62438;52.228;6.864;2023-03-31T06:32:50;18.08;;;3.22;;
74080;SDS011;62438;52.228;6.864;2023-03-31T06:34:51;17.58;;;4.18;;
74080;SDS011;62438;52.228;6.864;2023-03-31T06:36:51;15.20;;;3.92;;
74080;SDS011;62438;52.228;6.864;2023-03-31T06:38:52;14.20;;;4.10;;
74080;SDS011;62438;52.228;6.864;2023-03-31T06:40:52;14.45;;;3.95;;
74080;SDS011;62438;52.228;6.864;2023-03-31T06:42:53;16.63;;;4.00;;
74080;SDS011;62438;52.228;6.864;2023-03-31T06:44:54;14.35;;;6.00;;
74080;SDS011;62438;52.228;6.864;2023-03-31T06:46:54;14.13;;;4.38;;
74080;SDS011;62438;52.228;6.864;2023-03-31T06:48:55;15.13;;;4.30;;
74080;SDS011;62438;52.228;6.864;2023-03-31T06:50:58;17.65;;;4.60;;
74080;SDS011;62438;52.228;6.864;2023-03-31T06:52:59;17.55;;;3.97;;
74080;SDS011;62438;52.228;6.864;2023-03-31T06:55:00;18.95;;;4.15;;
74080;SDS011;62438;52.228;6.864;2023-03-31T06:57:00;19.30;;;4.68;;
74080;SDS011;62438;52.228;6.864;2023-03-31T06:59:00;16.20;;;4.25;;
74080;SDS011;62438;52.228;6.864;2023-03-31T07:01:02;17.63;;;4.35;;
74080;SDS011;62438;52.228;6.864;2023-03-31T07:03:03;12.88;;;4.38;;
74080;SDS011;62438;52.228;6.864;2023-03-31T07:05:04;14.88;;;3.70;;
74080;SDS011;62438;52.228;6.864;2023-03-31T07:07:05;13.80;;;3.53;;
74080;SDS011;62438;52.228;6.864;2023-03-31T07:09:05;11.13;;;2.83;;
74080;SDS011;62438;52.228;6.864;2023-03-31T07:11:06;17.90;;;3.30;;
74080;SDS011;62438;52.228;6.864;2023-03-31T07:13:06;19.27;;;3.50;;
74080;SDS011;62438;52.228;6.864;2023-03-31T07:15:07;13.25;;;2.80;;
74080;SDS011;62438;52.228;6.864;2023-03-31T07:17:07;14.00;;;2.50;;
74080;SDS011;62438;52.228;6.864;2023-03-31T07:19:08;13.20;;;3.13;;
74080;SDS011;62438;52.228;6.864;2023-03-31T07:21:09;12.75;;;3.00;;
74080;SDS011;62438;52.228;6.864;2023-03-31T07:23:10;9.48;;;2.22;;
74080;SDS011;62438;52.228;6.864;2023-03-31T07:25:11;9.10;;;2.38;;
74080;SDS011;62438;52.228;6.864;2023-03-31T07:27:14;9.85;;;2.25;;
74080;SDS011;62438;52.228;6.864;2023-03-31T07:29:14;11.38;;;2.30;;
74080;SDS011;62438;52.228;6.864;2023-03-31T07:31:15;9.00;;;2.03;;
74080;SDS011;62438;52.228;6.864;2023-03-31T07:33:15;9.82;;;2.42;;
74080;SDS011;62438;52.228;6.864;2023-03-31T07:35:19;10.85;;;2.17;;
74080;SDS011;62438;52.228;6.864;2023-03-31T07:37:20;8.38;;;1.90;;
74080;SDS011;62438;52.228;6.864;2023-03-31T07:39:20;10.73;;;2.33;;
74080;SDS011;62438;52.228;6.864;2023-03-31T07:41:21;10.85;;;1.90;;
74080;SDS011;62438;52.228;6.864;2023-03-31T07:43:25;9.70;;;1.80;;
74080;SDS011;62438;52.228;6.864;2023-03-31T07:45:25;10.32;;;1.90;;
74080;SDS011;62438;52.228;6.864;2023-03-31T07:47:26;8.68;;;1.60;;
74080;SDS011;62438;52.228;6.864;2023-03-31T07:49:27;11.05;;;1.65;;
74080;SDS011;62438;52.228;6.864;2023-03-31T07:51:27;9.13;;;2.00;;
74080;SDS011;62438;52.228;6.864;2023-03-31T07:53:28;11.18;;;1.90;;
74080;SDS011;62438;52.228;6.864;2023-03-31T07:55:28;11.13;;;2.28;;
74080;SDS011;62438;52.228;6.864;2023-03-31T07:57:29;8.02;;;1.77;;
74080;SDS011;62438;52.228;6.864;2023-03-31T07:59:29;8.90;;;1.90;;
74080;SDS011;62438;52.228;6.864;2023-03-31T08:01:30;8.70;;;1.55;;
74080;SDS011;62438;52.228;6.864;2023-03-31T08:03:30;11.30;;;1.85;;
74080;SDS011;62438;52.228;6.864;2023-03-31T08:05:31;13.07;;;1.90;;
74080;SDS011;62438;52.228;6.864;2023-03-31T08:07:35;7.65;;;1.50;;
74080;SDS011;62438;52.228;6.864;2023-03-31T08:09:36;9.38;;;1.70;;
74080;SDS011;62438;52.228;6.864;2023-03-31T08:11:37;9.80;;;1.50;;
74080;SDS011;62438;52.228;6.864;2023-03-31T08:13:37;12.25;;;2.50;;
74080;SDS011;62438;52.228;6.864;2023-03-31T08:15:38;8.65;;;1.73;;
74080;SDS011;62438;52.228;6.864;2023-03-31T08:17:39;10.15;;;1.77;;
74080;SDS011;62438;52.228;6.864;2023-03-31T08:19:39;6.88;;;1.50;;
74080;SDS011;62438;52.228;6.864;2023-03-31T08:21:40;10.65;;;1.75;;
74080;SDS011;62438;52.228;6.864;2023-03-31T08:23:41;5.82;;;1.30;;
74080;SDS011;62438;52.228;6.864;2023-03-31T08:25:41;10.57;;;1.67;;
74080;SDS011;62438;52.228;6.864;2023-03-31T08:27:41;6.63;;;1.40;;
74080;SDS011;62438;52.228;6.864;2023-03-31T08:29:42;9.25;;;1.35;;
74080;SDS011;62438;52.228;6.864;2023-03-31T08:31:42;8.68;;;1.52;;
74080;SDS011;62438;52.228;6.864;2023-03-31T08:33:43;9.98;;;1.63;;
74080;SDS011;62438;52.228;6.864;2023-03-31T08:35:44;9.30;;;1.40;;
74080;SDS011;62438;52.228;6.864;2023-03-31T08:37:44;11.60;;;1.40;;
74080;SDS011;62438;52.228;6.864;2023-03-31T08:39:46;6.13;;;1.13;;
74080;SDS011;62438;52.228;6.864;2023-03-31T08:41:52;4.93;;;1.40;;
74080;SDS011;62438;52.228;6.864;2023-03-31T08:43:54;6.72;;;1.20;;
74080;SDS011;62438;52.228;6.864;2023-03-31T08:45:57;5.78;;;1.15;;
74080;SDS011;62438;52.228;6.864;2023-03-31T08:47:58;8.18;;;1.70;;
74080;SDS011;62438;52.228;6.864;2023-03-31T08:50:04;6.47;;;1.33;;
74080;SDS011;62438;52.228;6.864;2023-03-31T08:52:11;8.15;;;1.20;;
74080;SDS011;62438;52.228;6.864;2023-03-31T08:54:18;6.15;;;1.00;;
74080;SDS011;62438;52.228;6.864;2023-03-31T08:56:40;5.03;;;0.93;;
74080;SDS011;62438;52.228;6.864;2023-03-31T08:58:43;7.55;;;1.20;;
74080;SDS011;62438;52.228;6.864;2023-03-31T09:03:17;4.07;;;0.80;;
74080;SDS011;62438;52.228;6.864;2023-03-31T09:12:22;7.45;;;1.20;;
74080;SDS011;62438;52.228;6.864;2023-03-31T09:17:00;5.45;;;1.17;;
74080;SDS011;62438;52.228;6.864;2023-03-31T09:19:13;6.82;;;1.15;;
74080;SDS011;62438;52.228;6.864;2023-03-31T09:21:25;3.20;;;0.80;;
74080;SDS011;62438;52.228;6.864;2023-03-31T09:25:50;6.45;;;1.10;;
74080;SDS011;62438;52.228;6.864;2023-03-31T09:27:51;7.82;;;1.25;;
74080;SDS011;62438;52.228;6.864;2023-03-31T09:29:56;5.85;;;1.30;;
74080;SDS011;62438;52.228;6.864;2023-03-31T09:32:01;5.03;;;0.82;;
74080;SDS011;62438;52.228;6.864;2023-03-31T09:34:20;5.00;;;1.13;;
74080;SDS011;62438;52.228;6.864;2023-03-31T09:36:28;3.30;;;0.82;;
74080;SDS011;62438;52.228;6.864;2023-03-31T09:38:28;3.28;;;0.77;;
74080;SDS011;62438;52.228;6.864;2023-03-31T09:40:30;4.75;;;1.08;;
74080;SDS011;62438;52.228;6.864;2023-03-31T09:42:30;3.55;;;0.90;;
74080;SDS011;62438;52.228;6.864;2023-03-31T09:44:37;4.97;;;0.80;;
74080;SDS011;62438;52.228;6.864;2023-03-31T09:46:39;6.15;;;0.85;;
74080;SDS011;62438;52.228;6.864;2023-03-31T09:48:40;3.50;;;0.63;;
74080;SDS011;62438;52.228;6.864;2023-03-31T09:50:52;5.10;;;0.93;;
74080;SDS011;62438;52.228;6.864;2023-03-31T09:52:57;3.88;;;0.80;;
74080;SDS011;62438;52.228;6.864;2023-03-31T09:55:00;7.28;;;1.00;;
74080;SDS011;62438;52.228;6.864;2023-03-31T09:57:02;5.68;;;1.13;;
74080;SDS011;62438;52.228;6.864;2023-03-31T09:59:14;5.72;;;1.20;;
74080;SDS011;62438;52.228;6.864;2023-03-31T10:01:16;5.63;;;1.02;;
74080;SDS011;62438;52.228;6.864;2023-03-31T10:03:17;8.27;;;1.40;;
74080;SDS011;62438;52.228;6.864;2023-03-31T10:05:27;6.95;;;1.50;;
74080;SDS011;62438;52.228;6.864;2023-03-31T10:07:28;5.88;;;1.35;;
74080;SDS011;62438;52.228;6.864;2023-03-31T10:09:30;7.03;;;1.38;;
74080;SDS011;62438;52.228;6.864;2023-03-31T10:11:32;12.43;;;1.42;;
74080;SDS011;62438;52.228;6.864;2023-03-31T10:15:39;6.63;;;1.33;;
74080;SDS011;62438;52.228;6.864;2023-03-31T10:17:48;8.95;;;1.60;;
74080;SDS011;62438;52.228;6.864;2023-03-31T10:19:50;11.32;;;1.90;;
74080;SDS011;62438;52.228;6.864;2023-03-31T10:24:01;9.43;;;1.88;;
74080;SDS011;62438;52.228;6.864;2023-03-31T10:26:10;7.95;;;1.42;;
74080;SDS011;62438;52.228;6.864;2023-03-31T10:28:16;9.02;;;1.95;;
74080;SDS011;62438;52.228;6.864;2023-03-31T10:30:21;11.48;;;2.20;;
74080;SDS011;62438;52.228;6.864;2023-03-31T10:32:32;12.65;;;2.20;;
74080;SDS011;62438;52.228;6.864;2023-03-31T10:34:37;10.63;;;1.75;;
74080;SDS011;62438;52.228;6.864;2023-03-31T10:36:45;8.27;;;1.30;;
74080;SDS011;62438;52.228;6.864;2023-03-31T10:38:47;11.30;;;2.60;;
74080;SDS011;62438;52.228;6.864;2023-03-31T10:40:49;13.90;;;1.90;;
74080;SDS011;62438;52.228;6.864;2023-03-31T10:43:02;8.82;;;1.50;;
74080;SDS011;62438;52.228;6.864;2023-03-31T10:45:22;11.63;;;1.70;;
74080;SDS011;62438;52.228;6.864;2023-03-31T10:47:25;9.45;;;1.52;;
74080;SDS011;62438;52.228;6.864;2023-03-31T10:49:36;9.88;;;1.60;;
74080;SDS011;62438;52.228;6.864;2023-03-31T10:51:37;12.90;;;2.20;;
74080;SDS011;62438;52.228;6.864;2023-03-31T10:53:54;9.35;;;1.60;;
74080;SDS011;62438;52.228;6.864;2023-03-31T11:00:48;12.40;;;1.70;;
74080;SDS011;62438;52.228;6.864;2023-03-31T11:05:45;10.95;;;1.60;;
74080;SDS011;62438;52.228;6.864;2023-03-31T11:16:52;8.77;;;1.52;;
74080;SDS011;62438;52.228;6.864;2023-03-31T11:28:31;9.80;;;1.85;;
74080;SDS011;62438;52.228;6.864;2023-03-31T11:30:49;11.77;;;1.63;;
74080;SDS011;62438;52.228;6.864;2023-03-31T11:44:49;9.38;;;1.52;;
74080;SDS011;62438;52.228;6.864;2023-03-31T11:47:04;11.85;;;1.42;;
74080;SDS011;62438;52.228;6.864;2023-03-31T11:51:42;11.57;;;1.50;;
74080;SDS011;62438;52.228;6.864;2023-03-31T11:53:47;9.80;;;1.50;;
74080;SDS011;62438;52.228;6.864;2023-03-31T11:55:49;9.05;;;1.35;;
74080;SDS011;62438;52.228;6.864;2023-03-31T12:04:39;8.32;;;1.35;;
74080;SDS011;62438;52.228;6.864;2023-03-31T12:06:43;7.72;;;1.13;;
74080;SDS011;62438;52.228;6.864;2023-03-31T12:13:18;7.88;;;1.00;;
74080;SDS011;62438;52.228;6.864;2023-03-31T12:15:26;11.13;;;1.85;;
74080;SDS011;62438;52.228;6.864;2023-03-31T12:17:38;9.30;;;1.65;;
74080;SDS011;62438;52.228;6.864;2023-03-31T12:19:46;8.23;;;1.65;;
74080;SDS011;62438;52.228;6.864;2023-03-31T12:24:10;9.63;;;1.35;;
74080;SDS011;62438;52.228;6.864;2023-03-31T12:26:15;9.65;;;1.27;;
74080;SDS011;62438;52.228;6.864;2023-03-31T12:28:28;7.78;;;1.25;;
74080;SDS011;62438;52.228;6.864;2023-03-31T12:30:32;7.93;;;1.35;;
74080;SDS011;62438;52.228;6.864;2023-03-31T12:32:39;10.48;;;1.23;;
74080;SDS011;62438;52.228;6.864;2023-03-31T12:36:59;8.35;;;1.20;;
74080;SDS011;62438;52.228;6.864;2023-03-31T12:39:47;10.60;;;1.60;;
74080;SDS011;62438;52.228;6.864;2023-03-31T12:41:58;9.20;;;1.52;;
74080;SDS011;62438;52.228;6.864;2023-03-31T12:49:05;9.10;;;1.30;;
74080;SDS011;62438;52.228;6.864;2023-03-31T12:55:55;6.70;;;1.30;;
74080;SDS011;62438;52.228;6.864;2023-03-31T13:00:28;10.98;;;1.85;;
74080;SDS011;62438;52.228;6.864;2023-03-31T13:02:28;12.02;;;1.73;;
74080;SDS011;62438;52.228;6.864;2023-03-31T13:04:29;8.88;;;1.67;;
74080;SDS011;62438;52.228;6.864;2023-03-31T13:10:58;8.85;;;1.13;;
74080;SDS011;62438;52.228;6.864;2023-03-31T13:14:59;10.80;;;1.15;;
74080;SDS011;62438;52.228;6.864;2023-03-31T13:19:40;8.55;;;0.95;;
74080;SDS011;62438;52.228;6.864;2023-03-31T13:24:00;9.82;;;1.42;;
74080;SDS011;62438;52.228;6.864;2023-03-31T13:26:02;7.70;;;1.35;;
74080;SDS011;62438;52.228;6.864;2023-03-31T13:28:08;12.23;;;1.30;;
74080;SDS011;62438;52.228;6.864;2023-03-31T13:32:35;11.00;;;1.25;;
74080;SDS011;62438;52.228;6.864;2023-03-31T13:34:39;6.80;;;1.60;;
74080;SDS011;62438;52.228;6.864;2023-03-31T13:36:48;7.55;;;1.27;;
74080;SDS011;62438;52.228;6.864;2023-03-31T13:39:12;7.75;;;1.83;;
74080;SDS011;62438;52.228;6.864;2023-03-31T13:49:39;8.00;;;1.50;;
74080;SDS011;62438;52.228;6.864;2023-03-31T14:07:47;5.93;;;0.98;;
74080;SDS011;62438;52.228;6.864;2023-03-31T14:09:52;8.38;;;0.95;;
74080;SDS011;62438;52.228;6.864;2023-03-31T14:11:53;9.88;;;1.73;;
74080;SDS011;62438;52.228;6.864;2023-03-31T14:16:16;9.15;;;1.13;;
74080;SDS011;62438;52.228;6.864;2023-03-31T14:18:36;9.63;;;1.30;;
74080;SDS011;62438;52.228;6.864;2023-03-31T14:29:43;8.57;;;1.30;;
74080;SDS011;62438;52.228;6.864;2023-03-31T14:31:49;8.48;;;1.20;;
74080;SDS011;62438;52.228;6.864;2023-03-31T14:36:50;8.98;;;1.15;;
74080;SDS011;62438;52.228;6.864;2023-03-31T14:39:00;8.30;;;1.10;;
74080;SDS011;62438;52.228;6.864;2023-03-31T14:41:03;10.75;;;1.00;;
74080;SDS011;62438;52.228;6.864;2023-03-31T14:43:03;9.00;;;1.60;;
74080;SDS011;62438;52.228;6.864;2023-03-31T14:45:37;9.93;;;1.00;;
74080;SDS011;62438;52.228;6.864;2023-03-31T14:47:33;8.82;;;1.35;;
74080;SDS011;62438;52.228;6.864;2023-03-31T14:49:34;7.25;;;1.45;;
74080;SDS011;62438;52.228;6.864;2023-03-31T14:51:41;9.80;;;1.73;;
74080;SDS011;62438;52.228;6.864;2023-03-31T14:53:42;8.00;;;1.23;;
74080;SDS011;62438;52.228;6.864;2023-03-31T14:55:43;7.30;;;1.02;;
74080;SDS011;62438;52.228;6.864;2023-03-31T14:57:49;8.95;;;0.93;;
74080;SDS011;62438;52.228;6.864;2023-03-31T14:59:51;6.85;;;1.00;;
74080;SDS011;62438;52.228;6.864;2023-03-31T15:01:53;8.05;;;1.50;;
74080;SDS011;62438;52.228;6.864;2023-03-31T15:03:57;7.85;;;1.40;;
74080;SDS011;62438;52.228;6.864;2023-03-31T15:05:58;6.97;;;0.95;;
74080;SDS011;62438;52.228;6.864;2023-03-31T15:08:01;9.18;;;1.20;;
74080;SDS011;62438;52.228;6.864;2023-03-31T15:10:06;8.15;;;1.20;;
74080;SDS011;62438;52.228;6.864;2023-03-31T15:12:10;8.88;;;1.17;;
74080;SDS011;62438;52.228;6.864;2023-03-31T15:14:14;9.75;;;1.20;;
74080;SDS011;62438;52.228;6.864;2023-03-31T15:18:31;12.48;;;2.58;;
74080;SDS011;62438;52.228;6.864;2023-03-31T15:20:39;18.52;;;3.28;;
74080;SDS011;62438;52.228;6.864;2023-03-31T15:22:41;11.50;;;2.28;;
74080;SDS011;62438;52.228;6.864;2023-03-31T15:24:42;9.63;;;1.30;;
74080;SDS011;62438;52.228;6.864;2023-03-31T15:26:55;5.20;;;0.85;;
74080;SDS011;62438;52.228;6.864;2023-03-31T15:30:00;10.70;;;1.25;;